Time;durP1;ratioP1;P1;durP2;ratioP2;P2;SDS_P1;SDS_P2;PMS_P1;PMS_P2;Temp;Humidity;BMP_temperature;BMP_pressure;BME280_temperature;BME280_humidity;BME280_pressure;Samples;Min_cycle;Max_cycle;Signal;HPM_P1;HPM_P2
2022/12/12 00:01:21;;;;;;;0.60;0.60;;;;;;;-1.04;80.32;98683.53;4439776;32;33172;-76
2022/12/12 00:03:48;;;;;;;1.15;1.05;;;;;;;-1.08;80.88;98679.62;4466511;32;34797;-75
2022/12/12 00:06:16;;;;;;;18.05;11.18;;;;;;;-1.36;80.30;98673.56;4455876;32;34054;-75
2022/12/12 00:08:44;;;;;;;0.60;0.60;;;;;;;-1.24;79.73;98686.09;4451487;32;33758;-76
2022/12/12 00:11:12;;;;;;;0.60;0.60;;;;;;;-0.74;78.12;98691.16;4453525;32;34383;-76
2022/12/12 00:13:39;;;;;;;17.15;10.55;;;;;;;-0.69;77.70;98696.72;4440771;32;34708;-75
2022/12/12 00:16:08;;;;;;;11.07;7.20;;;;;;;-1.17;78.98;98694.09;4454918;32;34374;-76
2022/12/12 00:18:36;;;;;;;19.35;11.07;;;;;;;-1.06;78.24;98690.03;4451899;32;33802;-75
2022/12/12 00:21:15;;;;;;;17.95;10.02;;;;;;;-2.00;80.42;98694.06;4454323;32;33485;-75
2022/12/12 00:23:43;;;;;;;16.02;9.77;;;;;;;-1.48;79.50;98690.09;4451042;32;34013;-73
2022/12/12 00:26:22;;;;;;;17.52;10.98;;;;;;;-1.17;78.68;98685.31;4441745;32;35022;-75
2022/12/12 00:28:50;;;;;;;17.83;10.00;;;;;;;-1.28;79.53;98702.66;4455433;32;34729;-73
2022/12/12 00:31:17;;;;;;;4.93;3.67;;;;;;;-1.11;78.73;98711.13;4469706;32;33790;-75
2022/12/12 00:33:47;;;;;;;12.45;8.20;;;;;;;-1.04;78.73;98711.97;4469541;32;33407;-75
2022/12/12 00:36:17;;;;;;;0.70;0.70;;;;;;;-1.21;79.12;98714.13;4448702;32;34177;-74
2022/12/12 00:38:45;;;;;;;8.40;4.70;;;;;;;-0.84;77.93;98714.72;4454747;32;34085;-76
2022/12/12 00:41:12;;;;;;;1.05;1.00;;;;;;;-1.34;80.27;98722.06;4455529;32;33327;-75
2022/12/12 00:43:40;;;;;;;15.95;9.95;;;;;;;-1.39;78.96;98727.16;4469089;32;34102;-75
2022/12/12 00:46:08;;;;;;;1.95;1.77;;;;;;;-1.76;80.34;98721.22;4455832;32;34259;-74
2022/12/12 00:48:35;;;;;;;0.60;0.60;;;;;;;-1.55;80.31;98729.13;4468738;32;34622;-75
2022/12/12 00:51:08;;;;;;;16.33;9.70;;;;;;;-1.19;79.26;98725.41;4453394;32;34377;-75
2022/12/12 00:53:37;;;;;;;0.82;0.70;;;;;;;-1.14;77.84;98717.66;4439887;32;33015;-75
2022/12/12 00:56:05;;;;;;;0.95;0.70;;;;;;;-1.23;79.16;98718.88;4453775;32;34005;-75
2022/12/12 00:58:33;;;;;;;1.48;1.00;;;;;;;-1.21;79.00;98710.66;4439336;32;34485;-75
2022/12/12 01:01:05;;;;;;;16.37;9.45;;;;;;;-1.60;79.29;98704.94;4453659;32;34150;-73
2022/12/12 01:03:34;;;;;;;0.70;0.70;;;;;;;-1.05;78.37;98697.84;4451313;32;33649;-74
2022/12/12 01:06:01;;;;;;;16.95;10.43;;;;;;;-0.90;78.19;98711.00;4453560;32;34828;-73
2022/12/12 01:08:29;;;;;;;4.78;3.17;;;;;;;-1.27;78.64;98717.62;4451677;32;33837;-73
2022/12/12 01:10:57;;;;;;;2.83;1.35;;;;;;;-1.07;78.74;98709.72;4466459;32;34264;-73
2022/12/12 01:13:25;;;;;;;17.25;10.07;;;;;;;-1.59;79.37;98713.75;4463935;32;33957;-73
2022/12/12 01:15:52;;;;;;;7.00;4.12;;;;;;;-1.67;80.76;98707.56;4462468;32;34926;-74
2022/12/12 01:18:20;;;;;;;9.93;5.35;;;;;;;-1.72;80.05;98704.69;4439411;32;34057;-73
2022/12/12 01:20:47;;;;;;;0.75;0.75;;;;;;;-1.48;80.47;98710.56;4465630;32;34218;-74
2022/12/12 01:23:15;;;;;;;16.48;10.23;;;;;;;-1.47;80.09;98707.69;4468183;32;33943;-75
2022/12/12 01:25:42;;;;;;;18.67;10.77;;;;;;;-1.19;79.14;98712.09;4451935;32;32760;-74
2022/12/12 01:28:10;;;;;;;1.73;1.62;;;;;;;-1.01;78.62;98708.09;4454871;32;34020;-75
2022/12/12 01:30:37;;;;;;;19.02;10.95;;;;;;;-1.29;79.72;98719.66;4454793;32;33082;-74
2022/12/12 01:33:05;;;;;;;17.70;10.55;;;;;;;-1.37;79.06;98722.47;4442549;32;32859;-75
2022/12/12 01:35:33;;;;;;;6.60;4.32;;;;;;;-1.52;79.62;98711.97;4470322;32;34338;-75
2022/12/12 01:38:00;;;;;;;0.93;0.93;;;;;;;-1.37;78.34;98706.50;4484632;32;33915;-74
2022/12/12 01:40:30;;;;;;;2.97;1.73;;;;;;;-1.89;80.14;98706.81;4454339;32;34280;-72
2022/12/12 01:42:58;;;;;;;0.65;0.65;;;;;;;-1.37;79.10;98703.84;4441720;32;33679;-74
2022/12/12 01:45:56;;;;;;;0.70;0.70;;;;;;;-1.14;78.80;98691.06;4456861;32;34072;-74
2022/12/12 01:48:27;;;;;;;20.20;11.70;;;;;;;-1.47;79.15;98704.19;4470821;32;34178;-73
2022/12/12 01:50:55;;;;;;;8.32;5.00;;;;;;;-1.08;78.16;98697.41;4443800;32;34213;-73
2022/12/12 01:53:24;;;;;;;1.70;1.58;;;;;;;-1.22;78.73;98690.41;4468135;32;33768;-75
2022/12/12 01:55:52;;;;;;;22.92;12.55;;;;;;;-1.40;78.42;98696.25;4454138;32;34966;-75
2022/12/12 01:58:20;;;;;;;17.30;11.00;;;;;;;-1.13;78.04;98690.03;4456469;32;34795;-73
2022/12/12 02:00:47;;;;;;;21.90;12.15;;;;;;;-1.58;79.34;98688.78;4455133;32;34190;-74
2022/12/12 02:03:15;;;;;;;24.15;13.65;;;;;;;-1.82;79.54;98684.78;4468390;32;33936;-72
2022/12/12 02:05:46;;;;;;;5.68;4.03;;;;;;;-1.80;79.95;98688.88;4456462;32;34829;-73
2022/12/12 02:08:15;;;;;;;21.35;12.55;;;;;;;-1.45;79.16;98689.72;4456792;32;34109;-73
2022/12/12 02:10:43;;;;;;;18.37;11.65;;;;;;;-1.58;78.99;98686.94;4443803;32;32072;-72
2022/12/12 02:13:15;;;;;;;0.60;0.60;;;;;;;-1.59;78.89;98701.28;4453549;32;33949;-72
2022/12/12 02:15:52;;;;;;;19.95;11.77;;;;;;;-1.44;78.62;98706.47;4442770;32;34101;-72
2022/12/12 02:18:44;;;;;;;11.70;6.87;;;;;;;-1.29;78.44;98706.34;4454620;32;34727;-72
2022/12/12 02:21:49;;;;;;;19.17;11.12;;;;;;;-1.65;79.25;98704.72;4456738;32;33380;-74
2022/12/12 02:24:28;;;;;;;21.58;12.30;;;;;;;-2.21;80.55;98700.25;4454809;32;33940;-74
2022/12/12 02:26:56;;;;;;;3.12;2.05;;;;;;;-2.07;80.46;98702.00;4440649;32;33658;-72
2022/12/12 02:30:00;;;;;;;6.93;4.45;;;;;;;-1.71;79.70;98705.50;4454841;32;33884;-74
2022/12/12 02:32:43;;;;;;;0.65;0.65;;;;;;;-2.19;79.49;98705.37;4455121;32;33512;-72
2022/12/12 02:35:23;;;;;;;7.97;4.90;;;;;;;-1.80;78.98;98702.16;4466251;32;33841;-72
2022/12/12 02:38:29;;;;;;;1.05;1.05;;;;;;;-1.66;78.80;98706.56;4456548;32;34274;-73
2022/12/12 02:41:05;;;;;;;20.20;12.20;;;;;;;-1.10;75.73;98697.63;4456293;32;34003;-73
2022/12/12 02:44:07;;;;;;;7.47;4.80;;;;;;;-1.73;78.38;98703.06;4470122;32;33075;-74
2022/12/12 02:46:42;;;;;;;19.27;11.68;;;;;;;-1.51;77.10;98706.44;4470502;32;33878;-74
2022/12/12 02:49:16;;;;;;;6.12;3.42;;;;;;;-1.32;75.81;98702.25;4441918;32;33386;-73
2022/12/12 02:51:44;;;;;;;18.15;11.05;;;;;;;-1.38;75.27;98707.50;4447399;32;34688;-73
2022/12/12 02:54:15;;;;;;;18.37;10.07;;;;;;;-1.14;72.64;98700.88;4455585;32;33519;-73
2022/12/12 02:56:42;;;;;;;17.73;10.20;;;;;;;-1.34;74.85;98706.09;4456056;32;33883;-74
2022/12/12 02:59:17;;;;;;;0.82;0.60;;;;;;;-1.33;74.28;98691.78;4470228;32;33965;-74
2022/12/12 03:01:51;;;;;;;1.00;0.90;;;;;;;-1.22;73.41;98698.41;4456113;32;35131;-74
2022/12/12 03:07:56;;;;;;;18.70;10.07;;;;;;;-1.45;74.14;98711.00;4457388;32;34562;-73
2022/12/12 03:10:51;;;;;;;0.50;0.50;;;;;;;-1.33;73.66;98695.28;4471455;32;33894;-73
2022/12/12 03:13:55;;;;;;;7.78;5.35;;;;;;;-1.41;74.72;98700.75;4453305;32;33262;-75
2022/12/12 03:16:34;;;;;;;1.85;1.40;;;;;;;-1.37;73.03;98703.84;4444183;32;33213;-73
2022/12/12 03:19:26;;;;;;;16.73;10.20;;;;;;;-1.16;71.97;98710.91;4470231;32;33862;-73
2022/12/12 03:22:04;;;;;;;0.60;0.60;;;;;;;-1.08;72.68;98716.88;4460194;32;34838;-73
2022/12/12 03:24:45;;;;;;;0.57;0.57;;;;;;;-0.93;71.30;98713.22;4455100;32;33560;-72
2022/12/12 03:27:16;;;;;;;2.60;2.00;;;;;;;-1.11;71.44;98719.91;4455464;32;34201;-75
2022/12/12 03:29:55;;;;;;;0.70;0.70;;;;;;;-1.14;72.03;98727.50;4455870;32;34592;-75
2022/12/12 03:32:29;;;;;;;13.23;7.57;;;;;;;-1.13;71.95;98731.78;4456152;32;35070;-75
2022/12/12 03:35:11;;;;;;;17.83;10.30;;;;;;;-1.08;71.70;98737.34;4456140;32;34694;-74
2022/12/12 03:37:48;;;;;;;0.95;0.80;;;;;;;-1.16;71.15;98742.84;4456152;32;33569;-74
2022/12/12 03:40:23;;;;;;;17.95;9.88;;;;;;;-1.33;71.18;98750.34;4456224;32;33721;-75
2022/12/12 03:43:08;;;;;;;7.53;4.12;;;;;;;-1.09;70.54;98749.81;4438537;32;33455;-74
2022/12/12 03:45:54;;;;;;;4.25;2.53;;;;;;;-1.00;70.88;98757.66;4453233;32;33741;-75
2022/12/12 03:48:30;;;;;;;4.70;1.60;;;;;;;-1.05;70.68;98764.38;4452291;32;34136;-74
2022/12/12 03:51:10;;;;;;;15.73;8.90;;;;;;;-0.76;70.25;98767.78;4438001;32;34839;-73
2022/12/12 03:53:58;;;;;;;4.03;2.22;;;;;;;-0.56;69.11;98775.84;4440517;32;34201;-75
2022/12/12 03:56:33;;;;;;;12.07;5.68;;;;;;;-0.84;69.23;98775.97;4442404;32;34176;-74
2022/12/12 03:59:11;;;;;;;;;;;;;;;-0.73;68.71;98782.56;4452342;32;33894;-72
2022/12/12 04:02:03;;;;;;;1.77;1.65;;;;;;;-0.80;69.62;98785.16;4451772;32;34363;-73
2022/12/12 04:05:00;;;;;;;5.55;2.78;;;;;;;-0.97;68.82;98791.84;4456089;32;34288;-71
2022/12/12 04:07:43;;;;;;;3.65;2.65;;;;;;;-0.66;68.82;98794.84;4464347;32;34584;-75
2022/12/12 04:13:12;;;;;;;3.83;2.47;;;;;;;-0.87;67.88;98790.47;4458290;32;33823;-69
2022/12/12 04:15:40;;;;;;;14.50;8.10;;;;;;;-0.80;68.30;98805.66;4442569;32;34277;-79
2022/12/12 04:18:13;;;;;;;1.02;1.02;;;;;;;-0.96;68.93;98812.16;4465654;32;33934;-72
2022/12/12 04:23:56;;;;;;;0.70;0.70;;;;;;;-0.72;68.29;98827.63;4469384;32;34857;-70
2022/12/12 04:26:41;;;;;;;12.95;8.15;;;;;;;-1.15;68.03;98809.16;4455597;32;33935;-73
2022/12/12 04:29:17;;;;;;;15.17;9.67;;;;;;;-0.79;66.83;98824.09;4442500;32;35241;-69
2022/12/12 04:32:03;;;;;;;0.88;0.88;;;;;;;-0.45;66.10;98822.41;4468201;32;34388;-77
2022/12/12 04:34:51;;;;;;;14.10;8.15;;;;;;;-0.96;66.60;98822.81;4448808;32;33945;-74
2022/12/12 04:37:22;;;;;;;2.30;2.05;;;;;;;-0.64;65.92;98830.13;4453980;32;34013;-69
2022/12/12 04:39:52;;;;;;;0.77;0.77;;;;;;;-1.07;67.87;98837.50;4453931;32;34032;-69
2022/12/12 04:42:22;;;;;;;2.37;1.90;;;;;;;-0.46;66.36;98834.06;4453812;32;33536;-71
2022/12/12 04:44:51;;;;;;;16.25;11.02;;;;;;;-0.49;65.76;98837.97;4455645;32;33861;-76
2022/12/12 04:47:19;;;;;;;226.52;167.75;;;;;;;-0.84;65.26;98842.53;4452091;32;33906;-75
2022/12/12 04:49:48;;;;;;;18.62;14.60;;;;;;;-1.21;65.67;98847.22;4444819;32;33926;-68
2022/12/12 04:52:17;;;;;;;15.90;9.57;;;;;;;-1.00;65.03;98842.84;4454129;32;34148;-79
2022/12/12 04:54:50;;;;;;;4.05;2.78;;;;;;;-0.68;64.94;98852.84;4469265;32;33921;-72
2022/12/12 04:57:27;;;;;;;13.75;8.90;;;;;;;-0.66;63.54;98850.81;4441700;32;32853;-68
2022/12/12 04:59:55;;;;;;;14.70;8.52;;;;;;;-0.30;63.04;98865.69;4446364;32;33836;-69
2022/12/12 05:02:44;;;;;;;1.27;0.95;;;;;;;-0.59;63.04;98852.69;4469417;32;33565;-76
2022/12/12 05:05:18;;;;;;;0.68;0.65;;;;;;;-0.52;62.58;98854.34;4468471;32;34545;-74
2022/12/12 05:07:51;;;;;;;5.05;1.95;;;;;;;-1.21;64.19;98847.22;4455845;32;34325;-72
2022/12/12 05:10:19;;;;;;;2.10;1.67;;;;;;;-0.98;63.87;98856.78;4469314;32;33565;-74
2022/12/12 05:12:49;;;;;;;13.90;8.93;;;;;;;-0.93;64.63;98847.19;4448473;32;32504;-69
2022/12/12 05:15:18;;;;;;;5.97;3.45;;;;;;;-0.93;63.35;98854.34;4447997;32;33882;-69
2022/12/12 05:17:49;;;;;;;1.52;0.82;;;;;;;-1.34;64.98;98860.44;4447545;32;33854;-68
2022/12/12 05:20:16;;;;;;;14.40;8.73;;;;;;;-0.91;63.97;98852.31;4468142;32;33779;-71
2022/12/12 05:22:44;;;;;;;7.43;3.78;;;;;;;-1.11;64.17;98853.00;4453489;32;33314;-70
2022/12/12 05:25:12;;;;;;;0.73;0.60;;;;;;;-1.33;65.01;98859.44;4466673;32;34694;-74
2022/12/12 05:27:40;;;;;;;15.20;7.62;;;;;;;-1.22;65.96;98864.22;4459935;32;34814;-76
2022/12/12 05:30:08;;;;;;;11.00;6.37;;;;;;;-1.25;66.05;98867.28;4463372;32;34309;-74
2022/12/12 05:32:36;;;;;;;20.00;10.68;;;;;;;-1.12;65.55;98859.38;4445084;32;31932;-72
2022/12/12 05:35:05;;;;;;;17.92;10.43;;;;;;;-1.00;65.17;98859.63;4462657;32;34252;-76
2022/12/12 05:37:32;;;;;;;18.05;10.40;;;;;;;-1.09;64.78;98868.81;4452003;32;33933;-72
2022/12/12 05:40:00;;;;;;;1.10;0.95;;;;;;;-1.22;65.81;98866.88;4465936;32;33940;-75
2022/12/12 05:42:29;;;;;;;0.50;0.50;;;;;;;-1.05;65.38;98867.41;4460529;32;33365;-72
2022/12/12 05:44:56;;;;;;;1.48;1.20;;;;;;;-1.30;66.55;98872.34;4462516;32;34504;-74
2022/12/12 05:47:24;;;;;;;9.07;5.40;;;;;;;-1.19;65.31;98870.97;4461575;32;34057;-75
2022/12/12 05:49:51;;;;;;;4.70;2.85;;;;;;;-1.48;66.42;98872.81;4463232;32;34581;-74
2022/12/12 05:52:19;;;;;;;2.05;1.95;;;;;;;-1.70;65.63;98870.19;4456337;32;33511;-72
2022/12/12 05:54:46;;;;;;;18.02;10.90;;;;;;;-1.90;67.83;98872.66;4452458;32;32250;-76
2022/12/12 05:57:16;;;;;;;1.17;0.93;;;;;;;-1.59;66.52;98879.50;4460343;32;34301;-70
2022/12/12 05:59:44;;;;;;;17.20;9.90;;;;;;;-1.28;66.75;98883.59;4454374;32;33942;-72
2022/12/12 06:02:13;;;;;;;1.27;0.93;;;;;;;-0.98;64.69;98886.88;4455934;32;34275;-71
2022/12/12 06:04:41;;;;;;;18.50;9.88;;;;;;;-1.19;64.80;98884.28;4455890;32;33962;-69
2022/12/12 06:07:08;;;;;;;6.85;3.80;;;;;;;-1.35;64.87;98890.72;4468492;32;33011;-69
2022/12/12 06:09:36;;;;;;;0.50;0.50;;;;;;;-1.32;65.12;98885.84;4470769;32;34684;-77
2022/12/12 06:12:04;;;;;;;0.70;0.70;;;;;;;-1.54;66.38;98884.22;4450101;32;33431;-73
2022/12/12 06:14:32;;;;;;;17.77;9.93;;;;;;;-1.62;65.99;98882.53;4438409;32;33737;-78
2022/12/12 06:16:59;;;;;;;0.90;0.82;;;;;;;-1.52;65.02;98885.69;4452329;32;33726;-70
2022/12/12 06:19:27;;;;;;;4.12;2.08;;;;;;;-1.24;65.70;98891.00;4455124;32;34010;-72
2022/12/12 06:21:54;;;;;;;0.95;0.70;;;;;;;-0.94;63.35;98890.81;4459072;32;34019;-68
2022/12/12 06:24:21;;;;;;;0.68;0.68;;;;;;;-0.96;63.72;98892.84;4465557;32;34718;-75
2022/12/12 06:26:49;;;;;;;0.70;0.70;;;;;;;-0.86;63.36;98897.84;4450837;32;32838;-75
2022/12/12 06:29:17;;;;;;;0.80;0.80;;;;;;;-0.85;62.94;98897.63;4449333;32;34855;-72
2022/12/12 06:31:44;;;;;;;1.00;0.80;;;;;;;-0.76;63.91;98900.12;4435041;32;32117;-72
2022/12/12 06:34:12;;;;;;;1.30;0.98;;;;;;;-1.02;62.78;98909.59;4464841;32;33914;-74
2022/12/12 06:36:40;;;;;;;15.73;7.25;;;;;;;-1.62;65.49;98913.63;4457552;32;33739;-74
2022/12/12 06:39:08;;;;;;;1.25;0.80;;;;;;;-1.43;64.64;98918.28;4449730;32;32355;-72
2022/12/12 06:41:36;;;;;;;1.50;1.08;;;;;;;-1.47;65.84;98922.34;4464402;32;33986;-74
2022/12/12 06:44:03;;;;;;;18.65;10.15;;;;;;;-0.97;64.20;98923.16;4456732;32;33991;-72
2022/12/12 06:46:31;;;;;;;5.93;3.58;;;;;;;-1.33;65.14;98933.94;4459574;32;34602;-69
2022/12/12 06:48:59;;;;;;;5.65;3.10;;;;;;;-1.04;64.97;98930.25;4468645;32;33762;-69
2022/12/12 06:51:30;;;;;;;19.27;11.90;;;;;;;-1.07;64.21;98925.34;4467857;32;33529;-68
2022/12/12 06:53:58;;;;;;;1.67;1.58;;;;;;;-1.15;65.41;98926.28;4468636;32;35396;-68
2022/12/12 06:56:26;;;;;;;4.50;2.92;;;;;;;-0.87;64.10;98936.94;4462898;32;33862;-69
2022/12/12 06:58:54;;;;;;;1.20;1.00;;;;;;;-0.99;64.16;98935.00;4454479;32;33141;-70
2022/12/12 07:01:22;;;;;;;3.20;2.90;;;;;;;-1.08;64.56;98936.97;4447162;32;34650;-69
2022/12/12 07:03:50;;;;;;;19.58;10.85;;;;;;;-0.89;64.59;98935.47;4440339;32;33959;-69
2022/12/12 07:06:20;;;;;;;2.92;2.37;;;;;;;-0.81;64.51;98934.53;4446106;32;33899;-70
2022/12/12 07:08:48;;;;;;;25.80;13.32;;;;;;;-1.19;66.18;98932.19;4442781;32;34009;-71
2022/12/12 07:11:18;;;;;;;5.68;3.53;;;;;;;-0.94;65.23;98938.72;4454748;32;34521;-68
2022/12/12 07:13:47;;;;;;;3.47;2.28;;;;;;;-1.52;67.00;98940.72;4454919;32;34725;-70
2022/12/12 07:16:15;;;;;;;20.65;12.20;;;;;;;-1.03;66.28;98937.25;4452392;32;34196;-73
2022/12/12 07:18:42;;;;;;;1.37;1.25;;;;;;;-1.15;66.80;98939.59;4455269;32;34049;-69
2022/12/12 07:21:12;;;;;;;20.75;12.18;;;;;;;-1.11;66.59;98948.84;4457868;32;33564;-71
2022/12/12 07:23:40;;;;;;;9.90;6.72;;;;;;;-0.89;66.64;98948.81;4456746;32;33679;-69
2022/12/12 07:26:12;;;;;;;1.15;1.15;;;;;;;-1.52;67.60;98957.50;4462022;32;35117;-69
2022/12/12 07:28:40;;;;;;;0.82;0.82;;;;;;;-1.32;67.27;98960.38;4440749;32;33909;-73
2022/12/12 07:31:11;;;;;;;30.27;14.57;;;;;;;-1.01;66.28;98963.69;4447928;32;33012;-73
2022/12/12 07:33:40;;;;;;;7.22;3.83;;;;;;;-0.99;66.05;98965.13;4456075;32;33810;-71
2022/12/12 07:36:11;;;;;;;0.77;0.77;;;;;;;-0.84;66.38;98965.84;4439352;32;33526;-74
2022/12/12 07:38:40;;;;;;;1.40;1.12;;;;;;;-1.37;66.92;98964.59;4449385;32;34461;-73
2022/12/12 07:41:10;;;;;;;24.25;12.63;;;;;;;-0.86;65.39;98972.41;4439819;32;34240;-71
2022/12/12 07:43:39;;;;;;;22.20;12.65;;;;;;;-0.96;66.73;98970.06;4459769;32;33812;-79
2022/12/12 07:46:14;;;;;;;2.28;1.65;;;;;;;-0.76;64.78;98975.50;4449449;32;35050;-77
2022/12/12 07:48:42;;;;;;;20.88;11.73;;;;;;;-0.22;64.24;98964.16;4456021;32;34005;-75
2022/12/12 07:51:11;;;;;;;17.17;10.75;;;;;;;-0.12;63.17;98974.44;4469767;32;33540;-72
2022/12/12 07:53:38;;;;;;;1.10;1.10;;;;;;;-0.24;63.82;98970.69;4441953;32;32267;-74
2022/12/12 07:56:07;;;;;;;21.05;11.65;;;;;;;0.11;62.37;98970.63;4451285;32;34901;-74
2022/12/12 07:58:36;;;;;;;0.60;0.60;;;;;;;-0.21;63.51;98983.62;4456517;32;33751;-71
2022/12/12 08:01:16;;;;;;;18.48;10.18;;;;;;;-0.17;63.30;98987.56;4455376;32;34266;-77
2022/12/12 08:03:44;;;;;;;18.45;10.00;;;;;;;-0.23;63.57;98997.16;4447028;32;33685;-71
2022/12/12 08:06:12;;;;;;;15.32;9.68;;;;;;;-0.10;62.92;98999.06;4459153;32;34150;-72
2022/12/12 08:08:40;;;;;;;15.85;8.90;;;;;;;0.16;62.59;98995.69;4450046;32;33827;-72
2022/12/12 08:11:10;;;;;;;18.50;10.38;;;;;;;-0.29;64.50;99000.59;4456273;32;33980;-74
2022/12/12 08:13:38;;;;;;;15.10;9.43;;;;;;;-0.37;63.45;98997.28;4436227;32;33650;-74
2022/12/12 08:16:12;;;;;;;16.40;9.32;;;;;;;0.05;62.31;98988.25;4451013;32;34253;-74
2022/12/12 08:18:39;;;;;;;17.40;9.57;;;;;;;0.44;60.72;98986.75;4449844;32;33958;-73
2022/12/12 08:21:09;;;;;;;17.67;9.80;;;;;;;0.58;60.89;98985.75;4452258;32;33760;-73
2022/12/12 08:23:37;;;;;;;16.87;9.25;;;;;;;0.72;61.44;98997.25;4448122;32;33496;-75
2022/12/12 08:26:08;;;;;;;11.57;6.72;;;;;;;1.31;59.35;99002.81;4431503;32;33401;-73
2022/12/12 08:28:36;;;;;;;15.27;8.75;;;;;;;0.77;61.85;99010.00;4469768;32;33859;-74
2022/12/12 08:31:03;;;;;;;14.52;9.00;;;;;;;1.76;58.64;99010.97;4429235;32;31885;-74
2022/12/12 08:33:31;;;;;;;14.20;9.10;;;;;;;2.05;55.13;99006.94;4447739;32;33982;-75
2022/12/12 08:35:59;;;;;;;12.85;8.00;;;;;;;1.30;58.05;99010.03;4440100;32;34174;-74
2022/12/12 08:38:27;;;;;;;14.95;8.10;;;;;;;1.32;57.84;99010.63;4439901;32;35073;-73
2022/12/12 08:40:55;;;;;;;12.90;8.00;;;;;;;1.62;57.16;99012.84;4454097;32;33458;-72
2022/12/12 08:43:22;;;;;;;12.85;7.80;;;;;;;1.61;57.38;99012.03;4439002;32;33526;-72
2022/12/12 08:45:50;;;;;;;12.95;7.62;;;;;;;2.17;56.22;99007.94;4453878;32;34260;-74
2022/12/12 08:48:17;;;;;;;13.75;8.00;;;;;;;2.68;54.84;99008.94;4453040;32;33995;-73
2022/12/12 08:50:45;;;;;;;14.07;8.75;;;;;;;3.02;53.57;99004.97;4453928;32;34443;-74
2022/12/12 08:53:12;;;;;;;12.27;7.57;;;;;;;3.27;53.99;99017.56;4464161;32;33722;-75
2022/12/12 08:55:40;;;;;;;13.02;7.20;;;;;;;3.24;52.30;99015.28;4469398;32;35019;-74
2022/12/12 08:58:07;;;;;;;12.15;7.50;;;;;;;2.82;52.08;99010.47;4469341;32;33664;-74
2022/12/12 09:00:35;;;;;;;12.88;7.57;;;;;;;3.57;50.61;99017.69;4469096;32;33781;-74
2022/12/12 09:03:03;;;;;;;11.65;6.78;;;;;;;3.83;51.08;99015.78;4449654;32;33563;-74
2022/12/12 09:05:30;;;;;;;11.38;7.12;;;;;;;4.02;48.81;99012.06;4453709;32;33909;-70
2022/12/12 09:07:58;;;;;;;12.20;7.53;;;;;;;3.56;50.56;99017.91;4453388;32;34118;-69
2022/12/12 09:10:27;;;;;;;13.07;7.78;;;;;;;2.78;50.92;99021.84;4453192;32;34457;-72
2022/12/12 09:12:54;;;;;;;11.77;7.72;;;;;;;3.03;52.31;99005.78;4452921;32;34622;-74
2022/12/12 09:15:21;;;;;;;13.55;7.40;;;;;;;3.15;50.81;99013.94;4453173;32;34327;-74
2022/12/12 09:17:49;;;;;;;11.23;7.20;;;;;;;2.88;52.08;99008.78;4453579;32;34006;-71
2022/12/12 09:20:17;;;;;;;11.48;6.97;;;;;;;3.14;50.69;99015.00;4456282;32;33571;-70
2022/12/12 09:22:44;;;;;;;12.95;8.00;;;;;;;2.69;51.85;99007.06;4452212;32;34596;-72
2022/12/12 09:25:12;;;;;;;14.68;8.75;;;;;;;2.13;53.50;99001.38;4452481;32;35094;-73
2022/12/12 09:27:40;;;;;;;13.55;7.65;;;;;;;1.81;54.81;99003.97;4452311;32;34960;-71
2022/12/12 09:30:08;;;;;;;13.48;7.85;;;;;;;1.46;55.81;99019.44;4455380;32;33232;-69
2022/12/12 09:32:36;;;;;;;14.30;8.23;;;;;;;1.49;54.78;99000.34;4456367;32;33833;-69
2022/12/12 09:35:04;;;;;;;13.40;7.80;;;;;;;1.90;55.12;99009.91;4439519;32;35160;-68
2022/12/12 09:37:32;;;;;;;13.73;8.35;;;;;;;1.87;55.48;99001.47;4438196;32;33227;-69
2022/12/12 09:40:00;;;;;;;14.95;8.15;;;;;;;1.62;57.45;99012.84;4454486;32;34072;-72
2022/12/12 09:42:30;;;;;;;15.82;8.70;;;;;;;1.81;57.29;99020.03;4453278;32;33992;-71
2022/12/12 09:45:02;;;;;;;12.13;7.93;;;;;;;1.75;55.50;99020.84;4425897;32;34001;-69
2022/12/12 09:47:43;;;;;;;13.48;7.95;;;;;;;1.95;54.61;99017.31;4426384;32;34870;-71
2022/12/12 09:50:36;;;;;;;14.80;8.60;;;;;;;1.38;56.65;99012.47;4424146;32;33731;-71
2022/12/12 09:53:11;;;;;;;13.02;7.93;;;;;;;1.46;56.50;99021.31;4443318;32;34596;-68
2022/12/12 09:55:54;;;;;;;12.68;7.62;;;;;;;1.26;56.94;99024.81;4438696;32;34150;-70
2022/12/12 09:58:25;;;;;;;0.93;0.93;;;;;;;1.14;57.45;99021.09;4450692;32;33675;-72
2022/12/12 10:00:59;;;;;;;12.23;7.25;;;;;;;1.76;54.97;99025.16;4452368;32;34249;-71
2022/12/12 10:03:29;;;;;;;13.80;8.27;;;;;;;1.54;55.62;99015.75;4454643;32;33882;-71
2022/12/12 10:06:05;;;;;;;14.38;8.80;;;;;;;1.50;57.09;99015.34;4428422;32;33522;-71
2022/12/12 10:09:30;;;;;;;14.13;8.57;;;;;;;0.94;58.23;99013.91;4444633;32;33966;-69
2022/12/12 10:11:59;;;;;;;12.15;7.32;;;;;;;1.84;56.67;99038.31;4453500;32;33453;-68
2022/12/12 10:14:38;;;;;;;13.07;8.20;;;;;;;1.81;56.05;99032.53;4441090;32;33954;-72
2022/12/12 10:17:14;;;;;;;14.10;8.18;;;;;;;1.75;58.47;99028.03;4440971;32;34059;-69
2022/12/12 10:19:52;;;;;;;15.02;8.38;;;;;;;1.80;57.77;99018.34;4455152;32;34536;-70
2022/12/12 10:22:41;;;;;;;14.30;7.85;;;;;;;1.84;56.38;99027.59;4441088;32;33920;-71
2022/12/12 10:25:20;;;;;;;13.62;8.30;;;;;;;1.61;57.32;99024.56;4439883;32;33917;-71
2022/12/12 10:28:07;;;;;;;13.90;8.15;;;;;;;2.49;55.09;99031.28;4439602;32;34669;-72
2022/12/12 10:31:00;;;;;;;12.10;7.62;;;;;;;2.55;55.46;99033.09;4444640;32;34000;-74
2022/12/12 10:33:53;;;;;;;12.37;7.65;;;;;;;2.40;55.35;99031.53;4443439;32;33460;-72
2022/12/12 10:36:39;;;;;;;11.75;7.53;;;;;;;2.21;54.49;99030.56;4453637;32;33731;-72
2022/12/12 10:39:42;;;;;;;12.50;7.45;;;;;;;2.00;53.77;99034.34;4440800;32;32741;-74
2022/12/12 10:42:10;;;;;;;9.82;6.37;;;;;;;2.05;55.22;99042.56;4454495;32;35028;-72
2022/12/12 10:44:53;;;;;;;9.65;6.07;;;;;;;1.57;53.63;99037.53;4452884;32;33643;-74
2022/12/12 10:47:21;;;;;;;4.35;1.92;;;;;;;1.21;55.14;99043.31;4454812;32;33994;-70
2022/12/12 10:49:51;;;;;;;10.18;6.00;;;;;;;1.70;52.51;99042.03;4428023;32;32707;-69
2022/12/12 10:52:20;;;;;;;9.35;5.72;;;;;;;1.16;54.41;99056.47;4440922;32;33965;-71
2022/12/12 10:54:57;;;;;;;7.47;4.97;;;;;;;0.90;54.87;99052.72;4454053;32;34260;-73
2022/12/12 10:57:33;;;;;;;0.60;0.60;;;;;;;1.05;53.96;99060.56;4440786;32;33976;-73
2022/12/12 11:00:16;;;;;;;7.95;5.22;;;;;;;0.86;54.28;99045.34;4426677;32;35075;-72
2022/12/12 11:02:43;;;;;;;9.13;5.72;;;;;;;1.13;55.14;99052.34;4447958;32;35201;-70
2022/12/12 11:05:21;;;;;;;9.05;5.57;;;;;;;1.22;54.08;99044.97;4438661;32;34267;-72
2022/12/12 11:07:59;;;;;;;9.95;5.25;;;;;;;1.35;55.42;99047.63;4453279;32;34675;-72
2022/12/12 11:10:31;;;;;;;8.30;5.10;;;;;;;1.42;53.38;99052.97;4438393;32;34252;-72
2022/12/12 11:13:10;;;;;;;8.60;5.68;;;;;;;1.42;54.43;99042.28;4424207;32;34018;-72
2022/12/12 11:15:38;;;;;;;9.98;5.87;;;;;;;1.74;52.47;99042.44;4437504;32;34145;-69
2022/12/12 11:18:13;;;;;;;9.32;5.68;;;;;;;1.23;52.88;99044.75;4411284;32;33401;-72
2022/12/12 11:20:49;;;;;;;6.90;3.90;;;;;;;1.53;54.48;99052.34;4424214;32;34677;-73
2022/12/12 11:23:25;;;;;;;2.75;1.00;;;;;;;1.98;54.20;99049.78;4439302;32;33916;-72
2022/12/12 11:25:56;;;;;;;11.55;7.15;;;;;;;1.55;53.56;99062.81;4439364;32;33970;-71
2022/12/12 11:28:26;;;;;;;11.73;6.78;;;;;;;1.49;55.43;99052.97;4439342;32;34450;-73
2022/12/12 11:30:54;;;;;;;11.45;5.95;;;;;;;1.40;55.38;99057.69;4459408;32;34763;-74
2022/12/12 11:33:31;;;;;;;9.43;5.62;;;;;;;1.38;56.15;99054.41;4450484;32;34785;-70
2022/12/12 11:36:00;;;;;;;10.02;5.50;;;;;;;1.70;55.88;99062.59;4454830;32;33753;-70
2022/12/12 11:38:39;;;;;;;10.05;6.15;;;;;;;1.66;54.64;99059.53;4454784;32;34569;-74
2022/12/12 11:41:09;;;;;;;11.90;6.35;;;;;;;1.84;56.65;99058.88;4439203;32;33840;-73
2022/12/12 11:43:48;;;;;;;8.70;5.18;;;;;;;1.76;54.93;99059.09;4465194;32;33447;-74
2022/12/12 11:46:18;;;;;;;10.20;5.80;;;;;;;2.23;53.31;99052.59;4468879;32;33526;-74
2022/12/12 11:48:55;;;;;;;9.02;5.87;;;;;;;2.23;55.03;99062.50;4452530;32;33990;-72
2022/12/12 11:51:32;;;;;;;8.52;5.53;;;;;;;2.73;52.76;99053.81;4423910;32;34724;-72
2022/12/12 11:54:01;;;;;;;9.35;6.07;;;;;;;2.58;54.97;99059.44;4449149;32;34069;-74
2022/12/12 11:57:01;;;;;;;10.82;6.80;;;;;;;2.52;54.91;99065.66;4468693;32;33684;-75
2022/12/12 11:59:59;;;;;;;11.80;6.18;;;;;;;2.03;55.75;99068.72;4468310;32;33555;-74
2022/12/12 12:02:48;;;;;;;10.18;6.07;;;;;;;1.64;56.90;99074.94;4465185;32;33815;-73
2022/12/12 12:05:40;;;;;;;11.88;6.87;;;;;;;1.84;56.29;99074.94;4451330;32;33972;-73